createdAt,value
2022-12-03T00:00:24.741Z,57.50
2022-12-03T00:01:26.987Z,59.05
2022-12-03T00:02:29.754Z,60.55
2022-12-03T00:03:35.972Z,57.03
2022-12-03T00:04:38.553Z,59.08
2022-12-03T00:05:48.221Z,59.55
2022-12-03T00:06:51.664Z,59.08
2022-12-03T00:07:53.995Z,58.80
2022-12-03T00:08:56.400Z,61.20
2022-12-03T00:09:58.655Z,67.47
2022-12-03T00:11:00.983Z,64.85
2022-12-03T00:12:03.342Z,66.28
2022-12-03T00:13:08.192Z,60.90
2022-12-03T00:14:10.492Z,64.50
2022-12-03T00:15:12.927Z,64.32
2022-12-03T00:16:15.503Z,62.00
2022-12-03T00:17:17.778Z,59.58
2022-12-03T00:18:20.392Z,60.30
2022-12-03T00:19:22.758Z,57.78
2022-12-03T00:20:25.461Z,60.55
2022-12-03T00:21:27.878Z,60.47
2022-12-03T00:22:30.170Z,63.88
2022-12-03T00:23:35.892Z,61.10
2022-12-03T00:24:40.853Z,59.03
2022-12-03T00:25:43.063Z,61.67
2022-12-03T00:26:45.666Z,60.67
2022-12-03T00:27:48.484Z,57.33
2022-12-03T00:28:50.752Z,57.28
2022-12-03T00:29:52.981Z,58.13
2022-12-03T00:30:55.697Z,60.30
2022-12-03T00:31:59.399Z,63.40
2022-12-03T00:33:01.648Z,52.60
2022-12-03T00:34:04.008Z,56.33
2022-12-03T00:35:06.818Z,62.47
2022-12-03T00:36:09.345Z,53.30
2022-12-03T00:37:11.760Z,57.13
2022-12-03T00:38:14.329Z,52.50
2022-12-03T00:39:16.749Z,55.70
2022-12-03T00:40:22.077Z,58.00
2022-12-03T00:41:25.269Z,61.47
2022-12-03T00:42:27.740Z,57.67
2022-12-03T00:43:30.002Z,54.50
2022-12-03T00:44:32.288Z,56.88
2022-12-03T00:45:34.518Z,58.45
2022-12-03T00:46:36.918Z,55.67
2022-12-03T00:47:39.234Z,57.75
2022-12-03T00:48:41.505Z,55.97
2022-12-03T00:49:44.187Z,54.90
2022-12-03T00:50:46.483Z,53.13
2022-12-03T00:51:49.118Z,54.17
2022-12-03T00:52:51.429Z,59.72
2022-12-03T00:53:53.777Z,57.92
2022-12-03T00:54:56.168Z,58.42
2022-12-03T00:55:58.633Z,53.47
2022-12-03T00:57:00.894Z,58.10
2022-12-03T00:58:03.389Z,59.88
2022-12-03T00:59:06.974Z,53.50
2022-12-03T01:00:10.202Z,57.88
2022-12-03T01:01:12.682Z,57.15
2022-12-03T01:02:15.625Z,57.17
2022-12-03T01:03:17.937Z,53.55
2022-12-03T01:04:20.507Z,62.40
2022-12-03T01:05:22.907Z,59.63
2022-12-03T01:06:25.234Z,53.28
2022-12-03T01:07:28.022Z,56.13
2022-12-03T01:08:30.603Z,58.60
2022-12-03T01:09:32.902Z,50.78
2022-12-03T01:10:35.458Z,57.70
2022-12-03T01:11:37.745Z,56.83
2022-12-03T01:12:40.190Z,57.95
2022-12-03T01:13:42.523Z,60.92
2022-12-03T01:14:46.032Z,56.42
2022-12-03T01:15:48.371Z,50.35
2022-12-03T01:16:50.869Z,56.40
2022-12-03T01:17:54.476Z,56.25
2022-12-03T01:18:56.907Z,53.10
2022-12-03T01:19:59.538Z,55.53
2022-12-03T01:21:01.913Z,54.92
2022-12-03T01:22:04.218Z,57.58
2022-12-03T01:23:06.537Z,54.05
2022-12-03T01:24:08.888Z,53.17
2022-12-03T01:25:11.515Z,54.83
2022-12-03T01:26:13.737Z,52.15
2022-12-03T01:27:16.156Z,49.90
2022-12-03T01:28:18.433Z,50.13
2022-12-03T01:29:20.691Z,47.38
2022-12-03T01:30:22.896Z,50.75
2022-12-03T01:31:43.605Z,52.15
2022-12-03T01:32:46.020Z,47.95
2022-12-03T01:33:48.595Z,49.35
2022-12-03T01:34:54.278Z,49.72
2022-12-03T01:35:57.379Z,54.13
2022-12-03T01:36:59.629Z,47.65
2022-12-03T01:38:01.885Z,52.78
2022-12-03T01:39:05.331Z,50.00
2022-12-03T01:40:09.136Z,52.10
2022-12-03T01:41:12.122Z,51.40
2022-12-03T01:42:23.785Z,45.60
2022-12-03T01:43:26.248Z,48.40
2022-12-03T01:44:31.378Z,48.10
2022-12-03T01:45:33.953Z,46.92
2022-12-03T01:46:41.693Z,45.55
2022-12-03T01:47:44.101Z,45.42
2022-12-03T01:48:48.598Z,49.22
2022-12-03T01:50:57.612Z,43.40
2022-12-03T01:52:01.289Z,43.70
2022-12-03T01:53:04.779Z,48.85
2022-12-03T01:54:12.502Z,43.83
2022-12-03T01:55:18.203Z,49.67
2022-12-03T01:56:20.554Z,41.83
2022-12-03T01:57:36.102Z,46.63
2022-12-03T01:58:39.488Z,45.58
2022-12-03T01:59:44.090Z,49.08
2022-12-03T02:00:46.342Z,46.13
2022-12-03T02:01:49.054Z,47.72
2022-12-03T02:02:58.015Z,48.90
2022-12-03T02:04:00.416Z,48.45
2022-12-03T02:05:07.524Z,44.70
2022-12-03T02:06:19.709Z,49.85
2022-12-03T02:07:27.185Z,49.80
2022-12-03T02:08:34.914Z,47.40
2022-12-03T02:09:37.151Z,47.45
2022-12-03T02:10:39.347Z,48.38
2022-12-03T02:11:47.561Z,52.30
2022-12-03T02:12:56.199Z,48.17
2022-12-03T02:14:05.590Z,48.00
2022-12-03T02:15:09.502Z,47.30
2022-12-03T02:16:11.800Z,50.90
2022-12-03T02:17:14.495Z,53.42
2022-12-03T02:18:16.925Z,54.60
2022-12-03T02:19:27.725Z,48.10
2022-12-03T02:20:33.646Z,53.35
2022-12-03T02:21:48.770Z,46.70
2022-12-03T02:23:03.069Z,48.05
2022-12-03T02:24:14.643Z,54.45
2022-12-03T02:25:21.263Z,52.95
2022-12-03T02:26:23.729Z,50.65
2022-12-03T02:27:28.737Z,55.35
2022-12-03T02:28:31.368Z,50.78
2022-12-03T02:29:34.273Z,53.45
2022-12-03T02:30:37.218Z,51.50
2022-12-03T02:31:39.546Z,56.40
2022-12-03T02:32:41.982Z,55.38
2022-12-03T02:33:44.619Z,51.28
2022-12-03T02:34:47.161Z,50.33
2022-12-03T02:35:49.772Z,50.80
2022-12-03T02:36:52.352Z,52.42
2022-12-03T02:37:59.507Z,53.80
2022-12-03T02:39:02.567Z,53.22
2022-12-03T02:40:11.359Z,50.22
2022-12-03T02:41:37.423Z,47.53
2022-12-03T02:42:41.395Z,52.33
2022-12-03T02:43:43.587Z,52.65
2022-12-03T02:44:45.818Z,53.53
2022-12-03T02:45:52.144Z,53.58
2022-12-03T02:46:54.527Z,54.50
2022-12-03T02:48:13.735Z,53.38
2022-12-03T02:49:19.008Z,51.80
2022-12-03T02:50:26.833Z,49.95
2022-12-03T02:51:30.400Z,52.95
2022-12-03T02:52:32.793Z,54.90
2022-12-03T02:53:44.681Z,50.70
2022-12-03T02:54:47.628Z,51.83
2022-12-03T02:55:51.635Z,49.72
2022-12-03T02:56:56.117Z,47.75
2022-12-03T02:57:58.488Z,51.38
2022-12-03T02:59:05.326Z,53.13
2022-12-03T03:00:09.906Z,48.17
2022-12-03T03:01:12.615Z,54.10
2022-12-03T03:02:15.237Z,48.45
2022-12-03T03:03:21.387Z,45.38
2022-12-03T03:04:25.163Z,50.92
2022-12-03T03:05:27.651Z,52.17
2022-12-03T03:06:30.187Z,54.50
2022-12-03T03:07:33.873Z,51.97
2022-12-03T03:08:38.256Z,49.42
2022-12-03T03:09:41.022Z,55.45
2022-12-03T03:10:45.140Z,58.28
2022-12-03T03:11:48.659Z,53.65
2022-12-03T03:12:54.102Z,59.45
2022-12-03T03:13:57.379Z,59.13
2022-12-03T03:15:00.002Z,55.35
2022-12-03T03:16:03.567Z,55.33
2022-12-03T03:17:06.192Z,56.50
2022-12-03T03:18:09.839Z,56.53
2022-12-03T03:19:12.428Z,52.65
2022-12-03T03:20:15.577Z,50.70
2022-12-03T03:21:17.948Z,51.08
2022-12-03T03:22:20.287Z,49.17
2022-12-03T03:23:24.317Z,46.47
2022-12-03T03:24:26.856Z,50.45
2022-12-03T03:25:29.078Z,49.92
2022-12-03T03:26:31.328Z,45.80
2022-12-03T03:27:34.368Z,46.88
2022-12-03T03:28:39.961Z,43.08
2022-12-03T03:29:42.558Z,43.63
2022-12-03T03:30:45.771Z,44.78
2022-12-03T03:31:48.600Z,47.17
2022-12-03T03:32:50.902Z,47.97
2022-12-03T03:33:53.347Z,47.53
2022-12-03T03:34:56.749Z,50.80
2022-12-03T03:36:00.643Z,43.83
2022-12-03T03:37:03.026Z,50.03
2022-12-03T03:38:07.094Z,47.53
2022-12-03T03:39:09.835Z,42.92
2022-12-03T03:40:12.337Z,49.50
2022-12-03T03:41:16.388Z,45.80
2022-12-03T03:42:18.844Z,46.40
2022-12-03T03:43:22.997Z,44.45
2022-12-03T03:44:25.364Z,46.10
2022-12-03T03:45:29.651Z,44.22
2022-12-03T03:46:33.636Z,44.15
2022-12-03T03:47:36.409Z,45.28
2022-12-03T03:48:40.001Z,51.05
2022-12-03T03:49:42.909Z,43.85
2022-12-03T03:50:46.045Z,41.58
2022-12-03T03:51:48.450Z,48.40
2022-12-03T03:52:50.792Z,49.53
2022-12-03T03:53:53.603Z,44.03
2022-12-03T03:54:56.139Z,47.33
2022-12-03T03:55:58.546Z,43.67
2022-12-03T03:57:00.802Z,73.35
2022-12-03T03:58:03.170Z,65.28
2022-12-03T03:59:05.833Z,63.25
2022-12-03T04:00:09.117Z,60.28
2022-12-03T04:01:13.471Z,54.70
2022-12-03T04:02:21.682Z,61.08
2022-12-03T04:03:23.931Z,60.65
2022-12-03T04:04:38.166Z,67.75
2022-12-03T04:05:40.708Z,54.80
2022-12-03T04:06:42.940Z,66.20
2022-12-03T04:07:48.175Z,60.03
2022-12-03T04:08:51.513Z,58.30
2022-12-03T04:09:54.759Z,56.25
2022-12-03T04:11:15.611Z,48.30
2022-12-03T04:12:36.486Z,50.92
2022-12-03T04:13:38.952Z,44.95
2022-12-03T04:14:41.203Z,46.80
2022-12-03T04:15:43.551Z,45.85
2022-12-03T04:16:45.866Z,41.95
2022-12-03T04:18:11.404Z,45.58
2022-12-03T04:19:16.630Z,45.90
2022-12-03T04:20:18.861Z,45.85
2022-12-03T04:21:41.890Z,42.63
2022-12-03T04:22:44.197Z,44.55
2022-12-03T04:23:46.712Z,45.33
2022-12-03T04:24:49.050Z,41.78
2022-12-03T04:26:09.990Z,42.90
2022-12-03T04:27:31.219Z,44.30
2022-12-03T04:28:52.032Z,40.35
2022-12-03T04:29:54.263Z,45.58
2022-12-03T04:30:57.762Z,38.50
2022-12-03T04:32:19.410Z,49.42
2022-12-03T04:33:40.163Z,40.53
2022-12-03T04:35:01.033Z,46.20
2022-12-03T04:36:03.932Z,41.47
2022-12-03T04:37:06.243Z,47.40
2022-12-03T04:38:09.485Z,49.30
2022-12-03T04:39:11.772Z,50.58
2022-12-03T04:40:32.741Z,41.85
2022-12-03T04:41:35.401Z,46.80
2022-12-03T04:42:37.809Z,43.05
2022-12-03T04:43:59.968Z,54.55
2022-12-03T04:45:02.425Z,47.38
2022-12-03T04:46:05.175Z,46.63
2022-12-03T04:47:21.947Z,46.35
2022-12-03T04:48:25.362Z,39.90
2022-12-03T04:49:27.687Z,47.05
2022-12-03T04:50:30.135Z,48.85
2022-12-03T04:51:32.408Z,44.63
2022-12-03T04:52:34.706Z,45.92
2022-12-03T04:53:39.636Z,50.40
2022-12-03T04:54:45.202Z,46.25
2022-12-03T04:55:47.418Z,48.88
2022-12-03T04:56:49.734Z,44.58
2022-12-03T04:57:53.001Z,44.88
2022-12-03T04:58:55.302Z,47.92
2022-12-03T04:59:57.635Z,45.13
2022-12-03T05:00:59.922Z,45.72
2022-12-03T05:02:03.287Z,48.65
2022-12-03T05:03:05.854Z,44.05
2022-12-03T05:04:08.443Z,42.03
2022-12-03T05:05:11.254Z,49.13
2022-12-03T05:06:13.826Z,47.15
2022-12-03T05:07:16.096Z,46.92
2022-12-03T05:08:18.346Z,42.70
2022-12-03T05:09:20.991Z,50.67
2022-12-03T05:10:23.332Z,45.53
2022-12-03T05:11:28.368Z,45.35
2022-12-03T05:12:30.587Z,46.08
2022-12-03T05:13:32.844Z,46.55
2022-12-03T05:14:35.946Z,46.45
2022-12-03T05:15:38.327Z,44.67
2022-12-03T05:16:40.651Z,44.70
2022-12-03T05:17:42.970Z,45.13
2022-12-03T05:18:45.315Z,46.88
2022-12-03T05:20:06.197Z,39.63
2022-12-03T05:21:08.471Z,46.40
2022-12-03T05:22:10.709Z,47.78
2022-12-03T05:23:14.140Z,45.20
2022-12-03T05:24:16.496Z,43.22
2022-12-03T05:25:18.784Z,43.15
2022-12-03T05:26:21.105Z,45.40
2022-12-03T05:27:24.396Z,43.50
2022-12-03T05:28:29.316Z,44.40
2022-12-03T05:29:31.786Z,42.40
2022-12-03T05:30:34.778Z,43.03
2022-12-03T05:31:37.046Z,40.90
2022-12-03T05:32:39.645Z,44.05
2022-12-03T05:33:44.577Z,45.70
2022-12-03T05:34:47.026Z,45.28
2022-12-03T05:35:49.414Z,45.15
2022-12-03T05:36:51.779Z,38.45
2022-12-03T05:37:54.151Z,43.10
2022-12-03T05:38:56.596Z,40.50
2022-12-03T05:39:58.799Z,41.17
2022-12-03T05:41:01.004Z,42.47
2022-12-03T05:42:22.742Z,42.45
2022-12-03T05:43:25.287Z,37.55
2022-12-03T05:44:27.525Z,41.05
2022-12-03T05:45:33.226Z,39.25
2022-12-03T05:46:36.565Z,43.72
2022-12-03T05:47:38.976Z,41.30
2022-12-03T05:48:41.307Z,37.40
2022-12-03T05:49:43.677Z,41.20
2022-12-03T05:50:47.046Z,43.40
2022-12-03T05:51:52.526Z,39.80
2022-12-03T05:53:00.129Z,41.13
2022-12-03T05:54:02.724Z,40.10
2022-12-03T05:55:05.854Z,40.15
2022-12-03T05:56:08.539Z,39.55
2022-12-03T05:57:10.873Z,38.47
2022-12-03T05:58:13.269Z,44.25
2022-12-03T05:59:15.548Z,35.33
2022-12-03T06:00:23.827Z,40.75
2022-12-03T06:01:26.125Z,40.42
2022-12-03T06:02:28.463Z,40.33
2022-12-03T06:03:31.040Z,42.78
2022-12-03T06:04:33.349Z,38.22
2022-12-03T06:05:35.596Z,41.80
2022-12-03T06:06:38.542Z,37.58
2022-12-03T06:07:41.209Z,41.70
2022-12-03T06:08:43.533Z,42.90
2022-12-03T06:09:45.723Z,36.15
2022-12-03T06:10:48.139Z,44.63
2022-12-03T06:11:54.180Z,44.10
2022-12-03T06:12:56.526Z,46.10
2022-12-03T06:14:01.366Z,46.10
2022-12-03T06:15:04.015Z,41.08
2022-12-03T06:16:06.380Z,43.15
2022-12-03T06:17:08.733Z,47.00
2022-12-03T06:18:11.781Z,47.88
2022-12-03T06:19:14.278Z,44.63
2022-12-03T06:20:19.531Z,44.53
2022-12-03T06:21:21.694Z,41.08
2022-12-03T06:22:23.985Z,38.63
2022-12-03T06:23:26.403Z,38.08
2022-12-03T06:24:31.243Z,49.70
2022-12-03T06:25:36.609Z,40.00
2022-12-03T06:26:38.793Z,41.92
2022-12-03T06:27:41.233Z,38.97
2022-12-03T06:28:47.829Z,40.33
2022-12-03T06:29:50.052Z,41.45
2022-12-03T06:30:52.349Z,46.20
2022-12-03T06:31:54.716Z,40.22
2022-12-03T06:32:57.004Z,39.20
2022-12-03T06:33:59.278Z,37.92
2022-12-03T06:35:04.187Z,37.88
2022-12-03T06:36:07.060Z,40.05
2022-12-03T06:37:09.406Z,42.13
2022-12-03T06:38:11.644Z,37.67
2022-12-03T06:39:13.936Z,42.58
2022-12-03T06:40:17.033Z,50.65
2022-12-03T06:41:19.869Z,45.60
2022-12-03T06:42:27.371Z,55.92
2022-12-03T06:43:31.179Z,62.53
2022-12-03T06:44:33.528Z,66.57
2022-12-03T06:45:35.878Z,58.30
2022-12-03T06:46:38.261Z,58.70
2022-12-03T06:47:40.663Z,61.33
2022-12-03T06:48:42.856Z,59.08
2022-12-03T06:49:45.273Z,61.80
2022-12-03T06:50:47.700Z,57.80
2022-12-03T06:51:49.993Z,61.40
2022-12-03T06:52:52.350Z,67.25
2022-12-03T06:53:54.661Z,64.00
2022-12-03T06:54:57.154Z,66.68
2022-12-03T06:56:00.038Z,65.22
2022-12-03T06:57:02.912Z,67.63
2022-12-03T06:58:05.166Z,70.97
2022-12-03T06:59:07.720Z,72.05
2022-12-03T07:00:10.628Z,64.78
2022-12-03T07:01:13.044Z,67.15
2022-12-03T07:02:15.490Z,68.07
2022-12-03T07:03:17.934Z,61.55
2022-12-03T07:04:20.498Z,62.72
2022-12-03T07:05:22.868Z,65.65
2022-12-03T07:06:25.518Z,63.33
2022-12-03T07:07:27.952Z,72.38
2022-12-03T07:08:30.396Z,64.57
2022-12-03T07:09:32.715Z,67.75
2022-12-03T07:10:34.971Z,64.75
2022-12-03T07:11:40.628Z,68.70
2022-12-03T07:12:43.252Z,58.25
2022-12-03T07:13:45.564Z,64.03
2022-12-03T07:14:47.709Z,57.40
2022-12-03T07:15:50.066Z,52.22
2022-12-03T07:16:52.454Z,53.85
2022-12-03T07:17:54.626Z,60.90
2022-12-03T07:18:56.873Z,54.15
2022-12-03T07:19:59.420Z,55.58
2022-12-03T07:21:01.697Z,57.20
2022-12-03T07:22:04.310Z,53.15
2022-12-03T07:23:06.925Z,53.75
2022-12-03T07:24:09.364Z,48.78
2022-12-03T07:25:16.774Z,52.97
2022-12-03T07:26:21.989Z,49.42
2022-12-03T07:27:24.136Z,51.83
2022-12-03T07:28:26.534Z,47.28
2022-12-03T07:29:29.273Z,57.97
2022-12-03T07:30:31.753Z,56.03
2022-12-03T07:31:34.739Z,55.75
2022-12-03T07:32:37.368Z,63.75
2022-12-03T07:33:39.606Z,64.30
2022-12-03T07:34:41.981Z,59.25
2022-12-03T07:35:44.432Z,56.85
2022-12-03T07:36:47.436Z,57.97
2022-12-03T07:37:50.397Z,56.20
2022-12-03T07:38:52.625Z,61.13
2022-12-03T07:39:55.008Z,58.40
2022-12-03T07:40:59.596Z,66.97
2022-12-03T07:42:02.622Z,60.90
2022-12-03T07:43:05.114Z,69.72
2022-12-03T07:44:12.539Z,69.82
2022-12-03T07:45:16.717Z,61.03
2022-12-03T07:46:19.010Z,64.38
2022-12-03T07:47:24.260Z,67.07
2022-12-03T07:48:29.242Z,52.75
2022-12-03T07:49:31.683Z,50.78
2022-12-03T07:50:34.295Z,44.00
2022-12-03T07:51:37.221Z,41.67
2022-12-03T07:52:39.499Z,46.33
2022-12-03T07:53:42.224Z,47.35
2022-12-03T07:54:44.575Z,48.40
2022-12-03T07:55:46.860Z,45.53
2022-12-03T07:56:49.149Z,50.58
2022-12-03T07:57:51.595Z,49.05
2022-12-03T07:58:54.183Z,56.55
2022-12-03T07:59:56.641Z,56.38
2022-12-03T08:00:59.021Z,67.95
2022-12-03T08:02:02.488Z,68.57
2022-12-03T08:03:04.870Z,51.53
2022-12-03T08:04:07.181Z,52.65
2022-12-03T08:05:09.443Z,49.15
2022-12-03T08:06:11.736Z,54.03
2022-12-03T08:07:14.054Z,45.55
2022-12-03T08:08:16.367Z,58.42
2022-12-03T08:09:18.830Z,54.15
2022-12-03T08:10:21.061Z,57.40
2022-12-03T08:11:26.692Z,43.05
2022-12-03T08:12:50.734Z,45.35
2022-12-03T08:13:53.021Z,50.80
2022-12-03T08:14:56.789Z,40.78
2022-12-03T08:16:02.170Z,41.17
2022-12-03T08:17:12.003Z,44.55
2022-12-03T08:18:17.159Z,39.83
2022-12-03T08:19:19.489Z,43.08
2022-12-03T08:20:24.272Z,40.35
2022-12-03T08:21:34.643Z,38.00
2022-12-03T08:22:36.816Z,36.83
2022-12-03T08:23:39.502Z,36.88
2022-12-03T08:24:42.647Z,37.70
2022-12-03T08:25:45.847Z,39.22
2022-12-03T08:26:50.055Z,42.33
2022-12-03T08:27:55.742Z,38.10
2022-12-03T08:28:58.379Z,35.97
2022-12-03T08:30:04.699Z,40.90
2022-12-03T08:31:12.615Z,37.78
2022-12-03T08:32:15.090Z,36.03
2022-12-03T08:33:27.198Z,38.92
2022-12-03T08:34:35.637Z,38.78
2022-12-03T08:35:37.925Z,34.88
2022-12-03T08:36:40.204Z,33.97
2022-12-03T08:37:42.485Z,37.85
2022-12-03T08:38:55.460Z,41.47
2022-12-03T08:39:57.768Z,36.08
2022-12-03T08:41:00.003Z,36.00
2022-12-03T08:42:23.362Z,35.10
2022-12-03T08:43:35.834Z,34.30
2022-12-03T08:44:41.110Z,33.80
2022-12-03T08:45:43.647Z,34.78
2022-12-03T08:46:54.367Z,33.47
2022-12-03T08:48:04.000Z,36.50
2022-12-03T08:49:06.597Z,39.03
2022-12-03T08:50:29.412Z,36.72
2022-12-03T08:51:31.761Z,39.78
2022-12-03T08:52:35.230Z,33.03
2022-12-03T08:53:42.771Z,37.95
2022-12-03T08:54:56.416Z,34.38
2022-12-03T08:56:05.348Z,36.40
2022-12-03T08:57:27.817Z,37.65
2022-12-03T08:58:33.525Z,33.17
2022-12-03T08:59:40.258Z,33.40
2022-12-03T09:00:45.179Z,37.83
2022-12-03T09:01:49.136Z,38.80
2022-12-03T09:02:59.381Z,37.15
2022-12-03T09:04:24.145Z,43.65
2022-12-03T09:05:30.200Z,38.17
2022-12-03T09:06:32.640Z,41.80
2022-12-03T09:07:35.318Z,39.88
2022-12-03T09:08:37.674Z,40.05
2022-12-03T09:09:40.807Z,35.90
2022-12-03T09:10:43.197Z,40.88
2022-12-03T09:11:46.840Z,39.00
2022-12-03T09:12:49.232Z,37.45
2022-12-03T09:13:51.807Z,40.85
2022-12-03T09:14:54.334Z,32.85
2022-12-03T09:15:56.732Z,37.22
2022-12-03T09:16:59.121Z,31.27
2022-12-03T09:18:01.490Z,32.95
2022-12-03T09:19:04.551Z,37.58
2022-12-03T09:20:07.422Z,33.10
2022-12-03T09:21:09.947Z,34.78
2022-12-03T09:22:12.359Z,30.98
2022-12-03T09:23:17.446Z,36.67
2022-12-03T09:24:20.324Z,35.03
2022-12-03T09:25:22.586Z,35.35
2022-12-03T09:26:27.265Z,34.42
2022-12-03T09:27:29.476Z,33.33
2022-12-03T09:28:31.927Z,29.40
2022-12-03T09:29:34.712Z,35.15
2022-12-03T09:30:37.552Z,33.97
2022-12-03T09:31:40.141Z,35.90
2022-12-03T09:32:42.545Z,35.63
2022-12-03T09:33:44.890Z,35.25
2022-12-03T09:34:47.303Z,33.15
2022-12-03T09:35:49.517Z,34.17
2022-12-03T09:36:51.939Z,36.03
2022-12-03T09:37:54.386Z,36.58
2022-12-03T09:38:57.019Z,35.35
2022-12-03T09:39:59.427Z,44.22
2022-12-03T09:41:01.741Z,42.45
2022-12-03T09:42:04.171Z,41.20
2022-12-03T09:43:06.665Z,71.13
2022-12-03T09:44:15.879Z,64.22
2022-12-03T09:45:20.393Z,45.38
2022-12-03T09:46:23.241Z,39.78
2022-12-03T09:47:25.717Z,37.55
2022-12-03T09:48:28.333Z,31.85
2022-12-03T09:49:33.123Z,37.88
2022-12-03T09:50:40.657Z,38.10
2022-12-03T09:51:44.122Z,39.97
2022-12-03T09:53:52.361Z,43.65
2022-12-03T09:54:55.090Z,40.20
2022-12-03T09:56:03.545Z,39.15
2022-12-03T09:57:07.291Z,35.85
2022-12-03T09:58:14.651Z,36.97
2022-12-03T09:59:17.835Z,37.22
2022-12-03T10:00:26.156Z,33.72
2022-12-03T10:01:30.585Z,37.95
2022-12-03T10:02:34.449Z,31.23
2022-12-03T10:03:47.926Z,37.05
2022-12-03T10:04:50.303Z,39.88
2022-12-03T10:05:54.166Z,40.10
2022-12-03T10:06:58.579Z,47.03
2022-12-03T10:08:08.575Z,66.72
2022-12-03T10:09:14.500Z,45.45
2022-12-03T10:10:21.037Z,47.55
2022-12-03T10:11:25.628Z,39.03
2022-12-03T10:12:28.086Z,40.30
2022-12-03T10:13:32.337Z,37.10
2022-12-03T10:14:34.877Z,37.80
2022-12-03T10:15:37.694Z,39.70
2022-12-03T10:16:41.198Z,39.78
2022-12-03T10:17:44.460Z,42.35
2022-12-03T10:18:51.442Z,40.75
2022-12-03T10:19:54.130Z,42.53
2022-12-03T10:20:57.522Z,40.05
2022-12-03T10:21:59.870Z,36.42
2022-12-03T10:23:02.326Z,35.80
2022-12-03T10:24:25.653Z,34.17
2022-12-03T10:25:27.933Z,36.40
2022-12-03T10:26:43.404Z,34.53
2022-12-03T10:28:04.026Z,37.20
2022-12-03T10:29:13.465Z,34.20
2022-12-03T10:30:19.801Z,37.67
2022-12-03T10:31:35.952Z,34.90
2022-12-03T10:32:49.275Z,34.20
2022-12-03T10:33:58.331Z,33.70
2022-12-03T10:35:22.290Z,33.53
2022-12-03T10:36:26.724Z,29.55
2022-12-03T10:37:29.014Z,36.65
2022-12-03T10:38:31.253Z,34.33
2022-12-03T10:39:33.533Z,30.30
2022-12-03T10:40:38.884Z,33.90
2022-12-03T10:41:42.587Z,30.98
2022-12-03T10:42:44.878Z,32.20
2022-12-03T10:43:47.243Z,33.72
2022-12-03T10:44:53.824Z,33.47
2022-12-03T10:46:03.571Z,33.17
2022-12-03T10:48:20.171Z,36.35
2022-12-03T10:49:22.732Z,30.00
2022-12-03T10:50:25.060Z,35.08
2022-12-03T10:51:27.359Z,35.20
2022-12-03T10:52:33.328Z,34.28
2022-12-03T10:53:37.324Z,34.83
2022-12-03T10:55:44.055Z,34.03
2022-12-03T10:56:50.754Z,32.60
2022-12-03T10:57:53.886Z,36.28
2022-12-03T10:58:56.355Z,31.67
2022-12-03T10:59:58.626Z,31.25
2022-12-03T11:01:03.753Z,33.22
2022-12-03T11:02:34.888Z,33.25
2022-12-03T11:03:37.339Z,30.92
2022-12-03T11:04:40.917Z,31.65
2022-12-03T11:05:45.768Z,33.35
2022-12-03T11:06:48.655Z,29.45
2022-12-03T11:07:51.053Z,30.15
2022-12-03T11:08:57.874Z,30.73
2022-12-03T11:10:02.882Z,28.63
2022-12-03T11:11:08.240Z,27.80
2022-12-03T11:12:26.536Z,26.55
2022-12-03T11:13:34.752Z,27.73
2022-12-03T11:14:54.310Z,26.55
2022-12-03T11:15:57.618Z,30.42
2022-12-03T11:17:00.048Z,29.00
2022-12-03T11:18:03.756Z,28.48
2022-12-03T11:19:19.855Z,26.17
2022-12-03T11:20:24.975Z,26.85
2022-12-03T11:21:27.597Z,26.70
2022-12-03T11:22:41.501Z,25.75
2022-12-03T11:23:46.864Z,28.27
2022-12-03T11:25:27.471Z,27.00
2022-12-03T11:26:29.725Z,24.98
2022-12-03T11:27:32.207Z,26.23
2022-12-03T11:28:36.246Z,27.02
2022-12-03T11:29:47.870Z,26.27
2022-12-03T11:31:01.478Z,29.83
2022-12-03T11:32:03.797Z,26.90
2022-12-03T11:33:20.160Z,25.88
2022-12-03T11:35:36.247Z,38.38
2022-12-03T11:37:10.376Z,37.78
2022-12-03T11:38:37.439Z,29.60
2022-12-03T11:39:45.817Z,28.52
2022-12-03T11:41:18.169Z,26.25
2022-12-03T11:42:26.683Z,32.10
2022-12-03T11:43:53.902Z,27.83
2022-12-03T11:45:11.002Z,30.88
2022-12-03T11:46:15.745Z,31.75
2022-12-03T11:47:18.172Z,31.52
2022-12-03T11:48:20.641Z,30.02
2022-12-03T11:49:33.288Z,29.02
2022-12-03T11:50:40.331Z,30.70
2022-12-03T11:51:44.345Z,29.70
2022-12-03T11:52:52.610Z,33.58
2022-12-03T11:53:58.129Z,34.72
2022-12-03T11:55:14.903Z,33.95
2022-12-03T11:56:20.317Z,32.33
2022-12-03T11:57:27.669Z,30.80
2022-12-03T11:58:30.976Z,28.27
2022-12-03T11:59:33.208Z,30.73
2022-12-03T12:00:35.506Z,27.42
2022-12-03T12:01:41.291Z,29.70
2022-12-03T12:02:44.413Z,27.75
2022-12-03T12:03:49.627Z,28.13
2022-12-03T12:04:52.103Z,25.35
2022-12-03T12:06:08.182Z,29.83
2022-12-03T12:07:10.713Z,32.72
2022-12-03T12:08:19.712Z,31.85
2022-12-03T12:09:50.987Z,27.98
2022-12-03T12:10:53.347Z,28.25
2022-12-03T12:11:55.595Z,29.45
2022-12-03T12:12:57.845Z,27.15
2022-12-03T12:14:01.941Z,32.90
2022-12-03T12:15:38.001Z,27.90
2022-12-03T12:16:46.091Z,28.45
2022-12-03T12:17:48.493Z,29.55
2022-12-03T12:18:55.011Z,32.35
2022-12-03T12:20:25.787Z,28.63
2022-12-03T12:21:48.268Z,31.83
2022-12-03T12:22:52.044Z,24.25
2022-12-03T12:23:54.456Z,24.67
2022-12-03T12:25:25.694Z,24.17
2022-12-03T12:26:28.083Z,24.63
2022-12-03T12:27:49.563Z,28.40
2022-12-03T12:28:51.906Z,22.70
2022-12-03T12:29:57.412Z,25.92
2022-12-03T12:31:00.630Z,26.48
2022-12-03T12:32:31.317Z,22.50
2022-12-03T12:33:35.601Z,23.95
2022-12-03T12:34:42.509Z,24.38
2022-12-03T12:35:44.760Z,25.70
2022-12-03T12:36:49.989Z,25.80
2022-12-03T12:38:07.617Z,28.52
2022-12-03T12:39:15.682Z,27.17
2022-12-03T12:40:18.925Z,34.20
2022-12-03T12:41:21.284Z,31.80
2022-12-03T12:42:37.182Z,90.80
2022-12-03T12:43:40.188Z,47.53
2022-12-03T12:44:42.534Z,39.97
2022-12-03T12:45:45.025Z,35.95
2022-12-03T12:46:48.596Z,33.03
2022-12-03T12:48:59.428Z,39.67
2022-12-03T12:50:08.659Z,27.33
2022-12-03T12:51:19.871Z,26.83
2022-12-03T12:52:31.045Z,27.45
2022-12-03T12:53:36.659Z,27.85
2022-12-03T12:54:39.527Z,30.02
2022-12-03T12:55:41.952Z,30.85
2022-12-03T12:56:46.362Z,34.90
2022-12-03T12:57:49.070Z,31.60
2022-12-03T12:58:55.161Z,30.70
2022-12-03T12:59:57.681Z,30.35
2022-12-03T13:01:05.825Z,27.70
2022-12-03T13:02:41.208Z,30.90
2022-12-03T13:03:44.022Z,30.55
2022-12-03T13:04:46.231Z,30.58
2022-12-03T13:05:50.093Z,29.17
2022-12-03T13:07:56.226Z,30.35
2022-12-03T13:09:01.335Z,31.05
2022-12-03T13:10:20.609Z,32.17
2022-12-03T13:11:32.275Z,30.08
2022-12-03T13:12:34.513Z,28.70
2022-12-03T13:13:44.349Z,31.00
2022-12-03T13:14:47.355Z,29.80
2022-12-03T13:16:19.318Z,28.65
2022-12-03T13:17:24.713Z,31.52
2022-12-03T13:18:32.546Z,25.88
2022-12-03T13:19:46.099Z,30.02
2022-12-03T13:20:50.860Z,30.85
2022-12-03T13:21:55.742Z,31.17
2022-12-03T13:22:58.114Z,29.88
2022-12-03T13:24:01.038Z,28.33
2022-12-03T13:25:57.797Z,37.90
2022-12-03T13:26:52.918Z,34.40
2022-12-03T13:27:55.274Z,38.00
2022-12-03T13:28:58.012Z,37.28
2022-12-03T13:30:13.767Z,32.13
2022-12-03T13:31:33.596Z,34.38
2022-12-03T13:32:41.056Z,36.95
2022-12-03T13:33:43.266Z,36.67
2022-12-03T13:34:46.772Z,50.45
2022-12-03T13:35:49.023Z,50.45
2022-12-03T13:36:57.549Z,40.90
2022-12-03T13:38:00.621Z,34.92
2022-12-03T13:39:13.389Z,36.10
2022-12-03T13:40:35.102Z,48.90
2022-12-03T13:41:56.480Z,42.65
2022-12-03T13:42:59.592Z,37.97
2022-12-03T13:44:02.251Z,36.80
2022-12-03T13:45:16.748Z,34.50
2022-12-03T13:46:19.050Z,35.47
2022-12-03T13:47:22.847Z,36.83
2022-12-03T13:48:31.464Z,31.25
2022-12-03T13:49:35.123Z,31.20
2022-12-03T13:50:41.175Z,28.67
2022-12-03T13:51:44.436Z,31.50
2022-12-03T13:52:47.383Z,36.42
2022-12-03T13:53:49.716Z,39.55
2022-12-03T13:54:55.272Z,57.58
2022-12-03T13:56:03.221Z,50.50
2022-12-03T13:57:06.674Z,46.47
2022-12-03T13:58:09.108Z,50.13
2022-12-03T13:59:11.670Z,43.90
2022-12-03T14:00:14.681Z,45.78
2022-12-03T14:01:17.579Z,43.10
2022-12-03T14:02:20.104Z,38.33
2022-12-03T14:03:24.776Z,38.80
2022-12-03T14:04:27.044Z,38.60
2022-12-03T14:05:29.516Z,37.60
2022-12-03T14:06:33.779Z,39.30
2022-12-03T14:07:36.417Z,45.38
2022-12-03T14:08:38.840Z,39.92